sensor_id;sensor_type;location;lat;lon;timestamp;P1;durP1;ratioP1;P2;durP2;ratioP2
51987;SDS011;38003;52.012;4.346;2022-11-15T00:01:20;51.13;;;27.17;;
51987;SDS011;38003;52.012;4.346;2022-11-15T00:03:50;55.23;;;29.37;;
51987;SDS011;38003;52.012;4.346;2022-11-15T00:06:18;50.23;;;26.93;;
51987;SDS011;38003;52.012;4.346;2022-11-15T00:08:46;54.20;;;27.73;;
51987;SDS011;38003;52.012;4.346;2022-11-15T00:11:14;47.63;;;26.03;;
51987;SDS011;38003;52.012;4.346;2022-11-15T00:13:43;50.97;;;27.70;;
51987;SDS011;38003;52.012;4.346;2022-11-15T00:16:11;53.93;;;28.43;;
51987;SDS011;38003;52.012;4.346;2022-11-15T00:18:39;54.53;;;27.47;;
51987;SDS011;38003;52.012;4.346;2022-11-15T00:21:14;53.53;;;27.37;;
51987;SDS011;38003;52.012;4.346;2022-11-15T00:23:42;54.77;;;27.50;;
51987;SDS011;38003;52.012;4.346;2022-11-15T00:26:10;56.33;;;28.33;;
51987;SDS011;38003;52.012;4.346;2022-11-15T00:28:40;53.57;;;28.30;;
51987;SDS011;38003;52.012;4.346;2022-11-15T00:31:11;55.37;;;27.80;;
51987;SDS011;38003;52.012;4.346;2022-11-15T00:33:42;52.20;;;27.53;;
51987;SDS011;38003;52.012;4.346;2022-11-15T00:36:11;55.73;;;27.13;;
51987;SDS011;38003;52.012;4.346;2022-11-15T00:38:39;57.43;;;27.00;;
51987;SDS011;38003;52.012;4.346;2022-11-15T00:41:08;50.40;;;26.67;;
51987;SDS011;38003;52.012;4.346;2022-11-15T00:43:36;60.67;;;27.97;;
51987;SDS011;38003;52.012;4.346;2022-11-15T00:46:06;52.60;;;28.67;;
51987;SDS011;38003;52.012;4.346;2022-11-15T00:48:36;57.03;;;27.13;;
51987;SDS011;38003;52.012;4.346;2022-11-15T00:51:04;55.83;;;28.63;;
51987;SDS011;38003;52.012;4.346;2022-11-15T00:53:32;61.47;;;28.40;;
51987;SDS011;38003;52.012;4.346;2022-11-15T00:56:00;61.80;;;28.83;;
51987;SDS011;38003;52.012;4.346;2022-11-15T00:58:28;55.40;;;27.57;;
51987;SDS011;38003;52.012;4.346;2022-11-15T01:00:56;53.73;;;27.87;;
51987;SDS011;38003;52.012;4.346;2022-11-15T01:03:32;60.17;;;28.47;;
51987;SDS011;38003;52.012;4.346;2022-11-15T01:06:01;55.27;;;27.83;;
51987;SDS011;38003;52.012;4.346;2022-11-15T01:08:29;62.03;;;30.27;;
51987;SDS011;38003;52.012;4.346;2022-11-15T01:10:59;63.37;;;30.23;;
51987;SDS011;38003;52.012;4.346;2022-11-15T01:13:29;60.30;;;29.37;;
51987;SDS011;38003;52.012;4.346;2022-11-15T01:15:58;60.87;;;31.33;;
51987;SDS011;38003;52.012;4.346;2022-11-15T01:18:26;65.77;;;31.10;;
51987;SDS011;38003;52.012;4.346;2022-11-15T01:20:54;64.77;;;30.67;;
51987;SDS011;38003;52.012;4.346;2022-11-15T01:23:23;59.77;;;30.17;;
51987;SDS011;38003;52.012;4.346;2022-11-15T01:25:51;68.43;;;31.03;;
51987;SDS011;38003;52.012;4.346;2022-11-15T01:28:19;65.77;;;30.60;;
51987;SDS011;38003;52.012;4.346;2022-11-15T01:30:46;70.33;;;31.60;;
51987;SDS011;38003;52.012;4.346;2022-11-15T01:33:14;67.93;;;32.10;;
51987;SDS011;38003;52.012;4.346;2022-11-15T01:35:42;69.23;;;32.30;;
51987;SDS011;38003;52.012;4.346;2022-11-15T01:38:10;67.27;;;32.70;;
51987;SDS011;38003;52.012;4.346;2022-11-15T01:40:39;76.27;;;33.13;;
51987;SDS011;38003;52.012;4.346;2022-11-15T01:43:23;77.23;;;33.93;;
51987;SDS011;38003;52.012;4.346;2022-11-15T01:45:53;69.00;;;32.87;;
51987;SDS011;38003;52.012;4.346;2022-11-15T01:48:24;75.73;;;32.90;;
51987;SDS011;38003;52.012;4.346;2022-11-15T01:50:55;74.90;;;33.47;;
51987;SDS011;38003;52.012;4.346;2022-11-15T01:53:24;73.67;;;34.97;;
51987;SDS011;38003;52.012;4.346;2022-11-15T01:55:56;76.33;;;35.63;;
51987;SDS011;38003;52.012;4.346;2022-11-15T01:58:24;83.30;;;36.77;;
51987;SDS011;38003;52.012;4.346;2022-11-15T02:00:52;76.67;;;33.83;;
51987;SDS011;38003;52.012;4.346;2022-11-15T02:03:20;78.37;;;35.60;;
51987;SDS011;38003;52.012;4.346;2022-11-15T02:05:53;83.40;;;36.57;;
51987;SDS011;38003;52.012;4.346;2022-11-15T02:08:21;75.63;;;36.17;;
51987;SDS011;38003;52.012;4.346;2022-11-15T02:10:49;78.83;;;36.03;;
51987;SDS011;38003;52.012;4.346;2022-11-15T02:13:18;83.07;;;36.30;;
51987;SDS011;38003;52.012;4.346;2022-11-15T02:15:48;78.10;;;37.00;;
51987;SDS011;38003;52.012;4.346;2022-11-15T02:18:29;74.00;;;36.47;;
51987;SDS011;38003;52.012;4.346;2022-11-15T02:21:06;73.20;;;35.20;;
51987;SDS011;38003;52.012;4.346;2022-11-15T02:24:07;76.60;;;35.40;;
51987;SDS011;38003;52.012;4.346;2022-11-15T02:30:02;72.40;;;35.23;;
51987;SDS011;38003;52.012;4.346;2022-11-15T02:32:44;74.57;;;35.73;;
51987;SDS011;38003;52.012;4.346;2022-11-15T02:35:18;70.57;;;34.40;;
51987;SDS011;38003;52.012;4.346;2022-11-15T02:37:56;66.40;;;32.93;;
51987;SDS011;38003;52.012;4.346;2022-11-15T02:40:31;68.10;;;33.77;;
51987;SDS011;38003;52.012;4.346;2022-11-15T02:43:08;66.47;;;34.67;;
51987;SDS011;38003;52.012;4.346;2022-11-15T02:46:00;63.23;;;33.33;;
51987;SDS011;38003;52.012;4.346;2022-11-15T02:48:32;57.97;;;32.30;;
51987;SDS011;38003;52.012;4.346;2022-11-15T02:51:03;56.57;;;33.47;;
51987;SDS011;38003;52.012;4.346;2022-11-15T02:53:31;60.10;;;30.87;;
51987;SDS011;38003;52.012;4.346;2022-11-15T02:55:59;54.23;;;32.57;;
51987;SDS011;38003;52.012;4.346;2022-11-15T02:58:38;51.60;;;31.77;;
51987;SDS011;38003;52.012;4.346;2022-11-15T03:01:20;52.00;;;32.00;;
51987;SDS011;38003;52.012;4.346;2022-11-15T03:03:59;53.67;;;31.83;;
51987;SDS011;38003;52.012;4.346;2022-11-15T03:06:33;51.80;;;31.57;;
51987;SDS011;38003;52.012;4.346;2022-11-15T03:09:08;46.90;;;29.30;;
51987;SDS011;38003;52.012;4.346;2022-11-15T03:11:41;44.70;;;29.67;;
51987;SDS011;38003;52.012;4.346;2022-11-15T03:14:17;47.00;;;29.90;;
51987;SDS011;38003;52.012;4.346;2022-11-15T03:16:51;46.17;;;27.87;;
51987;SDS011;38003;52.012;4.346;2022-11-15T03:19:30;40.50;;;26.13;;
51987;SDS011;38003;52.012;4.346;2022-11-15T03:22:03;43.97;;;26.73;;
51987;SDS011;38003;52.012;4.346;2022-11-15T03:24:34;41.07;;;25.17;;
51987;SDS011;38003;52.012;4.346;2022-11-15T03:27:05;42.47;;;26.43;;
51987;SDS011;38003;52.012;4.346;2022-11-15T03:29:35;37.93;;;24.93;;
51987;SDS011;38003;52.012;4.346;2022-11-15T03:32:09;37.57;;;25.47;;
51987;SDS011;38003;52.012;4.346;2022-11-15T03:34:43;35.73;;;23.70;;
51987;SDS011;38003;52.012;4.346;2022-11-15T03:37:14;35.90;;;22.13;;
51987;SDS011;38003;52.012;4.346;2022-11-15T03:39:44;33.27;;;22.83;;
51987;SDS011;38003;52.012;4.346;2022-11-15T03:42:15;32.87;;;20.93;;
51987;SDS011;38003;52.012;4.346;2022-11-15T03:44:51;32.57;;;20.37;;
51987;SDS011;38003;52.012;4.346;2022-11-15T03:47:27;34.07;;;20.73;;
51987;SDS011;38003;52.012;4.346;2022-11-15T03:49:58;29.47;;;19.10;;
51987;SDS011;38003;52.012;4.346;2022-11-15T03:52:30;27.30;;;18.47;;
51987;SDS011;38003;52.012;4.346;2022-11-15T03:55:00;28.70;;;17.47;;
51987;SDS011;38003;52.012;4.346;2022-11-15T03:57:31;28.70;;;17.00;;
51987;SDS011;38003;52.012;4.346;2022-11-15T03:59:58;29.30;;;16.50;;
51987;SDS011;38003;52.012;4.346;2022-11-15T04:02:28;24.13;;;15.67;;
51987;SDS011;38003;52.012;4.346;2022-11-15T04:04:55;21.00;;;13.47;;
51987;SDS011;38003;52.012;4.346;2022-11-15T04:07:23;30.57;;;14.43;;
51987;SDS011;38003;52.012;4.346;2022-11-15T04:09:52;23.60;;;13.57;;
51987;SDS011;38003;52.012;4.346;2022-11-15T04:12:32;21.30;;;14.60;;
51987;SDS011;38003;52.012;4.346;2022-11-15T04:15:03;22.17;;;13.87;;
51987;SDS011;38003;52.012;4.346;2022-11-15T04:17:37;21.87;;;13.87;;
51987;SDS011;38003;52.012;4.346;2022-11-15T04:20:07;23.27;;;14.17;;
51987;SDS011;38003;52.012;4.346;2022-11-15T04:22:55;20.00;;;13.47;;
51987;SDS011;38003;52.012;4.346;2022-11-15T04:25:41;23.33;;;13.03;;
51987;SDS011;38003;52.012;4.346;2022-11-15T04:28:09;18.47;;;12.60;;
51987;SDS011;38003;52.012;4.346;2022-11-15T04:30:38;19.40;;;12.73;;
51987;SDS011;38003;52.012;4.346;2022-11-15T04:33:07;22.53;;;12.93;;
51987;SDS011;38003;52.012;4.346;2022-11-15T04:35:35;21.10;;;11.70;;
51987;SDS011;38003;52.012;4.346;2022-11-15T04:38:03;20.73;;;11.83;;
51987;SDS011;38003;52.012;4.346;2022-11-15T04:40:32;21.37;;;12.00;;
51987;SDS011;38003;52.012;4.346;2022-11-15T04:43:00;22.73;;;11.30;;
51987;SDS011;38003;52.012;4.346;2022-11-15T04:45:29;16.27;;;11.10;;
51987;SDS011;38003;52.012;4.346;2022-11-15T04:47:57;22.00;;;11.40;;
51987;SDS011;38003;52.012;4.346;2022-11-15T04:50:26;19.73;;;11.67;;
51987;SDS011;38003;52.012;4.346;2022-11-15T04:52:55;22.40;;;10.80;;
51987;SDS011;38003;52.012;4.346;2022-11-15T04:55:22;17.93;;;11.00;;
51987;SDS011;38003;52.012;4.346;2022-11-15T04:57:56;16.93;;;10.33;;
51987;SDS011;38003;52.012;4.346;2022-11-15T05:00:26;21.27;;;11.10;;
51987;SDS011;38003;52.012;4.346;2022-11-15T05:02:55;20.20;;;11.23;;
51987;SDS011;38003;52.012;4.346;2022-11-15T05:05:42;16.63;;;10.27;;
51987;SDS011;38003;52.012;4.346;2022-11-15T05:08:10;17.73;;;10.23;;
51987;SDS011;38003;52.012;4.346;2022-11-15T05:10:37;17.17;;;10.07;;
51987;SDS011;38003;52.012;4.346;2022-11-15T05:13:05;19.43;;;10.50;;
51987;SDS011;38003;52.012;4.346;2022-11-15T05:15:33;16.13;;;9.20;;
51987;SDS011;38003;52.012;4.346;2022-11-15T05:18:01;17.97;;;8.33;;
51987;SDS011;38003;52.012;4.346;2022-11-15T05:20:29;14.63;;;8.30;;
51987;SDS011;38003;52.012;4.346;2022-11-15T05:22:58;13.80;;;8.30;;
51987;SDS011;38003;52.012;4.346;2022-11-15T05:25:26;17.33;;;9.00;;
51987;SDS011;38003;52.012;4.346;2022-11-15T05:27:54;16.80;;;8.53;;
51987;SDS011;38003;52.012;4.346;2022-11-15T05:30:22;16.50;;;8.10;;
51987;SDS011;38003;52.012;4.346;2022-11-15T05:32:49;14.40;;;7.83;;
51987;SDS011;38003;52.012;4.346;2022-11-15T05:35:18;12.27;;;7.40;;
51987;SDS011;38003;52.012;4.346;2022-11-15T05:37:52;15.80;;;8.07;;
51987;SDS011;38003;52.012;4.346;2022-11-15T05:40:21;12.67;;;7.33;;
51987;SDS011;38003;52.012;4.346;2022-11-15T05:42:50;9.93;;;6.40;;
51987;SDS011;38003;52.012;4.346;2022-11-15T05:45:18;10.40;;;6.60;;
51987;SDS011;38003;52.012;4.346;2022-11-15T05:47:52;13.87;;;6.27;;
51987;SDS011;38003;52.012;4.346;2022-11-15T05:50:21;11.30;;;6.30;;
51987;SDS011;38003;52.012;4.346;2022-11-15T05:52:49;14.60;;;5.53;;
51987;SDS011;38003;52.012;4.346;2022-11-15T05:55:17;11.20;;;5.30;;
51987;SDS011;38003;52.012;4.346;2022-11-15T05:57:47;8.20;;;4.77;;
51987;SDS011;38003;52.012;4.346;2022-11-15T06:00:15;12.13;;;5.73;;
51987;SDS011;38003;52.012;4.346;2022-11-15T06:02:43;11.07;;;5.43;;
51987;SDS011;38003;52.012;4.346;2022-11-15T06:05:11;10.17;;;4.97;;
51987;SDS011;38003;52.012;4.346;2022-11-15T06:07:39;10.27;;;4.80;;
51987;SDS011;38003;52.012;4.346;2022-11-15T06:10:07;10.17;;;5.37;;
51987;SDS011;38003;52.012;4.346;2022-11-15T06:12:35;12.37;;;5.20;;
51987;SDS011;38003;52.012;4.346;2022-11-15T06:15:05;11.20;;;5.63;;
51987;SDS011;38003;52.012;4.346;2022-11-15T06:17:34;8.97;;;5.10;;
51987;SDS011;38003;52.012;4.346;2022-11-15T06:20:02;10.60;;;5.37;;
51987;SDS011;38003;52.012;4.346;2022-11-15T06:22:30;10.30;;;4.50;;
51987;SDS011;38003;52.012;4.346;2022-11-15T06:24:58;10.60;;;4.60;;
51987;SDS011;38003;52.012;4.346;2022-11-15T06:27:30;8.60;;;4.60;;
51987;SDS011;38003;52.012;4.346;2022-11-15T06:29:58;8.33;;;5.20;;
51987;SDS011;38003;52.012;4.346;2022-11-15T06:32:28;9.60;;;4.87;;
51987;SDS011;38003;52.012;4.346;2022-11-15T06:34:56;9.50;;;5.27;;
51987;SDS011;38003;52.012;4.346;2022-11-15T06:37:24;9.23;;;5.30;;
51987;SDS011;38003;52.012;4.346;2022-11-15T06:39:52;7.40;;;5.43;;
51987;SDS011;38003;52.012;4.346;2022-11-15T06:42:20;9.90;;;4.77;;
51987;SDS011;38003;52.012;4.346;2022-11-15T06:44:47;8.00;;;4.67;;
51987;SDS011;38003;52.012;4.346;2022-11-15T06:47:15;10.40;;;5.20;;
51987;SDS011;38003;52.012;4.346;2022-11-15T06:49:44;8.23;;;4.37;;
51987;SDS011;38003;52.012;4.346;2022-11-15T06:52:12;7.37;;;4.00;;
51987;SDS011;38003;52.012;4.346;2022-11-15T06:54:40;7.97;;;5.17;;
51987;SDS011;38003;52.012;4.346;2022-11-15T06:57:08;14.50;;;4.00;;
51987;SDS011;38003;52.012;4.346;2022-11-15T06:59:35;8.87;;;3.80;;
51987;SDS011;38003;52.012;4.346;2022-11-15T07:02:06;7.93;;;3.77;;
51987;SDS011;38003;52.012;4.346;2022-11-15T07:04:38;8.63;;;4.20;;
51987;SDS011;38003;52.012;4.346;2022-11-15T07:07:07;14.83;;;4.03;;
51987;SDS011;38003;52.012;4.346;2022-11-15T07:09:35;11.33;;;5.80;;
51987;SDS011;38003;52.012;4.346;2022-11-15T07:12:03;12.53;;;4.77;;
51987;SDS011;38003;52.012;4.346;2022-11-15T07:14:33;8.37;;;4.60;;
51987;SDS011;38003;52.012;4.346;2022-11-15T07:17:03;8.93;;;4.53;;
51987;SDS011;38003;52.012;4.346;2022-11-15T07:19:31;9.83;;;4.90;;
51987;SDS011;38003;52.012;4.346;2022-11-15T07:21:59;26.43;;;6.03;;
51987;SDS011;38003;52.012;4.346;2022-11-15T07:24:28;13.10;;;5.67;;
51987;SDS011;38003;52.012;4.346;2022-11-15T07:26:56;13.77;;;5.27;;
51987;SDS011;38003;52.012;4.346;2022-11-15T07:29:24;10.27;;;5.60;;
51987;SDS011;38003;52.012;4.346;2022-11-15T07:31:51;10.10;;;5.00;;
51987;SDS011;38003;52.012;4.346;2022-11-15T07:34:19;9.60;;;4.87;;
51987;SDS011;38003;52.012;4.346;2022-11-15T07:36:47;10.20;;;5.40;;
51987;SDS011;38003;52.012;4.346;2022-11-15T07:39:15;12.87;;;4.47;;
51987;SDS011;38003;52.012;4.346;2022-11-15T07:41:44;10.90;;;4.10;;
51987;SDS011;38003;52.012;4.346;2022-11-15T07:44:14;8.83;;;4.47;;
51987;SDS011;38003;52.012;4.346;2022-11-15T07:46:41;11.00;;;4.33;;
51987;SDS011;38003;52.012;4.346;2022-11-15T07:49:09;9.10;;;4.30;;
51987;SDS011;38003;52.012;4.346;2022-11-15T07:51:37;13.33;;;4.60;;
51987;SDS011;38003;52.012;4.346;2022-11-15T07:54:05;7.73;;;4.70;;
51987;SDS011;38003;52.012;4.346;2022-11-15T07:56:33;9.93;;;5.20;;
51987;SDS011;38003;52.012;4.346;2022-11-15T07:59:02;9.93;;;5.27;;
51987;SDS011;38003;52.012;4.346;2022-11-15T08:01:30;9.30;;;5.60;;
51987;SDS011;38003;52.012;4.346;2022-11-15T08:03:58;10.77;;;4.87;;
51987;SDS011;38003;52.012;4.346;2022-11-15T08:06:25;11.77;;;5.33;;
51987;SDS011;38003;52.012;4.346;2022-11-15T08:08:53;8.30;;;5.07;;
51987;SDS011;38003;52.012;4.346;2022-11-15T08:11:21;8.47;;;4.87;;
51987;SDS011;38003;52.012;4.346;2022-11-15T08:13:49;9.17;;;4.90;;
51987;SDS011;38003;52.012;4.346;2022-11-15T08:16:18;9.83;;;4.80;;
51987;SDS011;38003;52.012;4.346;2022-11-15T08:18:46;9.03;;;4.93;;
51987;SDS011;38003;52.012;4.346;2022-11-15T08:21:15;7.40;;;4.40;;
51987;SDS011;38003;52.012;4.346;2022-11-15T08:23:46;7.23;;;4.10;;
51987;SDS011;38003;52.012;4.346;2022-11-15T08:26:14;7.60;;;4.20;;
51987;SDS011;38003;52.012;4.346;2022-11-15T08:28:42;7.40;;;4.40;;
51987;SDS011;38003;52.012;4.346;2022-11-15T08:31:13;8.50;;;4.83;;
51987;SDS011;38003;52.012;4.346;2022-11-15T08:33:44;9.07;;;4.90;;
51987;SDS011;38003;52.012;4.346;2022-11-15T08:36:12;8.60;;;4.87;;
51987;SDS011;38003;52.012;4.346;2022-11-15T08:38:41;40.20;;;8.10;;
51987;SDS011;38003;52.012;4.346;2022-11-15T08:41:11;8.97;;;4.13;;
51987;SDS011;38003;52.012;4.346;2022-11-15T08:43:41;9.23;;;4.47;;
51987;SDS011;38003;52.012;4.346;2022-11-15T08:46:09;7.77;;;4.20;;
51987;SDS011;38003;52.012;4.346;2022-11-15T08:48:39;18.47;;;6.10;;
51987;SDS011;38003;52.012;4.346;2022-11-15T08:51:08;6.10;;;4.77;;
51987;SDS011;38003;52.012;4.346;2022-11-15T08:53:36;10.70;;;5.23;;
51987;SDS011;38003;52.012;4.346;2022-11-15T08:56:06;8.30;;;5.17;;
51987;SDS011;38003;52.012;4.346;2022-11-15T08:58:34;9.07;;;5.20;;
51987;SDS011;38003;52.012;4.346;2022-11-15T09:01:03;9.03;;;5.50;;
51987;SDS011;38003;52.012;4.346;2022-11-15T09:03:32;8.13;;;5.30;;
51987;SDS011;38003;52.012;4.346;2022-11-15T09:06:00;8.77;;;5.37;;
51987;SDS011;38003;52.012;4.346;2022-11-15T09:08:30;7.77;;;5.70;;
51987;SDS011;38003;52.012;4.346;2022-11-15T09:11:12;9.23;;;5.60;;
51987;SDS011;38003;52.012;4.346;2022-11-15T09:13:42;9.23;;;5.70;;
51987;SDS011;38003;52.012;4.346;2022-11-15T09:16:10;7.90;;;5.40;;
51987;SDS011;38003;52.012;4.346;2022-11-15T09:18:38;140.57;;;19.97;;
51987;SDS011;38003;52.012;4.346;2022-11-15T09:21:06;757.07;;;91.37;;
51987;SDS011;38003;52.012;4.346;2022-11-15T09:23:36;8.83;;;6.07;;
51987;SDS011;38003;52.012;4.346;2022-11-15T09:26:05;9.93;;;5.30;;
51987;SDS011;38003;52.012;4.346;2022-11-15T09:28:33;6.23;;;5.27;;
51987;SDS011;38003;52.012;4.346;2022-11-15T09:31:18;8.43;;;5.27;;
51987;SDS011;38003;52.012;4.346;2022-11-15T09:33:47;9.30;;;5.47;;
51987;SDS011;38003;52.012;4.346;2022-11-15T09:36:15;8.17;;;5.10;;
51987;SDS011;38003;52.012;4.346;2022-11-15T09:38:45;8.23;;;4.90;;
51987;SDS011;38003;52.012;4.346;2022-11-15T09:41:17;10.90;;;4.93;;
51987;SDS011;38003;52.012;4.346;2022-11-15T09:44:02;7.83;;;5.40;;
51987;SDS011;38003;52.012;4.346;2022-11-15T09:46:52;6.70;;;5.13;;
51987;SDS011;38003;52.012;4.346;2022-11-15T09:49:28;7.07;;;4.77;;
51987;SDS011;38003;52.012;4.346;2022-11-15T09:51:58;8.37;;;4.90;;
51987;SDS011;38003;52.012;4.346;2022-11-15T09:54:28;6.47;;;4.50;;
51987;SDS011;38003;52.012;4.346;2022-11-15T09:57:24;10.83;;;4.63;;
51987;SDS011;38003;52.012;4.346;2022-11-15T10:00:09;6.80;;;4.80;;
51987;SDS011;38003;52.012;4.346;2022-11-15T10:03:08;11.87;;;6.13;;
51987;SDS011;38003;52.012;4.346;2022-11-15T10:05:40;8.23;;;4.67;;
51987;SDS011;38003;52.012;4.346;2022-11-15T10:08:30;8.87;;;4.60;;
51987;SDS011;38003;52.012;4.346;2022-11-15T10:11:06;6.70;;;3.70;;
51987;SDS011;38003;52.012;4.346;2022-11-15T10:13:58;10.80;;;4.30;;
51987;SDS011;38003;52.012;4.346;2022-11-15T10:16:43;8.23;;;4.17;;
51987;SDS011;38003;52.012;4.346;2022-11-15T10:19:35;8.73;;;4.03;;
51987;SDS011;38003;52.012;4.346;2022-11-15T10:27:55;10.30;;;5.97;;
51987;SDS011;38003;52.012;4.346;2022-11-15T10:30:28;16.40;;;4.70;;
51987;SDS011;38003;52.012;4.346;2022-11-15T10:32:59;12.50;;;4.77;;
51987;SDS011;38003;52.012;4.346;2022-11-15T10:38:54;33.10;;;6.80;;
51987;SDS011;38003;52.012;4.346;2022-11-15T10:44:24;6.93;;;3.40;;
51987;SDS011;38003;52.012;4.346;2022-11-15T10:50:05;16.13;;;3.60;;
51987;SDS011;38003;52.012;4.346;2022-11-15T10:52:52;6.80;;;2.80;;
51987;SDS011;38003;52.012;4.346;2022-11-15T10:55:21;7.80;;;3.00;;
51987;SDS011;38003;52.012;4.346;2022-11-15T10:57:53;17.70;;;4.37;;
51987;SDS011;38003;52.012;4.346;2022-11-15T11:00:29;11.80;;;4.23;;
51987;SDS011;38003;52.012;4.346;2022-11-15T11:03:00;9.77;;;2.73;;
51987;SDS011;38003;52.012;4.346;2022-11-15T11:05:31;5.10;;;2.50;;
51987;SDS011;38003;52.012;4.346;2022-11-15T11:08:18;7.27;;;2.90;;
51987;SDS011;38003;52.012;4.346;2022-11-15T11:10:51;8.87;;;3.00;;
51987;SDS011;38003;52.012;4.346;2022-11-15T11:13:28;6.40;;;2.73;;
51987;SDS011;38003;52.012;4.346;2022-11-15T11:16:06;18.10;;;3.53;;
51987;SDS011;38003;52.012;4.346;2022-11-15T11:18:45;6.07;;;2.63;;
51987;SDS011;38003;52.012;4.346;2022-11-15T11:21:23;4.87;;;2.50;;
51987;SDS011;38003;52.012;4.346;2022-11-15T11:24:07;6.40;;;1.97;;
51987;SDS011;38003;52.012;4.346;2022-11-15T11:26:42;6.60;;;2.30;;
51987;SDS011;38003;52.012;4.346;2022-11-15T11:29:26;6.00;;;2.10;;
51987;SDS011;38003;52.012;4.346;2022-11-15T11:32:09;8.27;;;2.10;;
51987;SDS011;38003;52.012;4.346;2022-11-15T11:34:50;6.63;;;2.10;;
51987;SDS011;38003;52.012;4.346;2022-11-15T11:37:30;6.67;;;2.10;;
51987;SDS011;38003;52.012;4.346;2022-11-15T11:40:08;5.27;;;1.80;;
51987;SDS011;38003;52.012;4.346;2022-11-15T11:42:47;4.93;;;1.50;;
51987;SDS011;38003;52.012;4.346;2022-11-15T11:45:40;6.93;;;2.23;;
51987;SDS011;38003;52.012;4.346;2022-11-15T11:48:23;6.50;;;1.70;;
51987;SDS011;38003;52.012;4.346;2022-11-15T11:51:02;8.10;;;1.43;;
51987;SDS011;38003;52.012;4.346;2022-11-15T11:53:36;3.87;;;1.77;;
51987;SDS011;38003;52.012;4.346;2022-11-15T11:56:11;5.27;;;1.60;;
51987;SDS011;38003;52.012;4.346;2022-11-15T11:58:45;6.77;;;1.90;;
51987;SDS011;38003;52.012;4.346;2022-11-15T12:01:16;4.23;;;1.60;;
51987;SDS011;38003;52.012;4.346;2022-11-15T12:03:51;7.23;;;2.00;;
51987;SDS011;38003;52.012;4.346;2022-11-15T12:06:27;5.57;;;1.50;;
51987;SDS011;38003;52.012;4.346;2022-11-15T12:09:00;7.03;;;1.73;;
51987;SDS011;38003;52.012;4.346;2022-11-15T12:11:35;7.13;;;1.60;;
51987;SDS011;38003;52.012;4.346;2022-11-15T12:14:11;7.47;;;1.83;;
51987;SDS011;38003;52.012;4.346;2022-11-15T12:16:49;2.53;;;1.40;;
51987;SDS011;38003;52.012;4.346;2022-11-15T12:19:18;5.03;;;1.43;;
51987;SDS011;38003;52.012;4.346;2022-11-15T12:21:47;5.13;;;1.60;;
51987;SDS011;38003;52.012;4.346;2022-11-15T12:24:20;6.70;;;1.83;;
51987;SDS011;38003;52.012;4.346;2022-11-15T12:26:55;4.57;;;1.40;;
51987;SDS011;38003;52.012;4.346;2022-11-15T12:29:30;8.23;;;1.50;;
51987;SDS011;38003;52.012;4.346;2022-11-15T12:32:02;7.03;;;1.60;;
51987;SDS011;38003;52.012;4.346;2022-11-15T12:34:38;6.67;;;1.50;;
51987;SDS011;38003;52.012;4.346;2022-11-15T12:37:32;4.73;;;1.37;;
51987;SDS011;38003;52.012;4.346;2022-11-15T12:40:13;7.27;;;1.53;;
51987;SDS011;38003;52.012;4.346;2022-11-15T12:45:59;5.47;;;1.60;;
51987;SDS011;38003;52.012;4.346;2022-11-15T12:57:52;7.07;;;1.63;;
51987;SDS011;38003;52.012;4.346;2022-11-15T13:03:22;6.37;;;1.30;;
51987;SDS011;38003;52.012;4.346;2022-11-15T13:08:52;5.17;;;1.63;;
51987;SDS011;38003;52.012;4.346;2022-11-15T13:17:30;7.23;;;1.93;;
51987;SDS011;38003;52.012;4.346;2022-11-15T13:23:00;4.27;;;1.40;;
51987;SDS011;38003;52.012;4.346;2022-11-15T13:25:56;5.90;;;1.13;;
51987;SDS011;38003;52.012;4.346;2022-11-15T13:28:37;4.60;;;1.17;;
51987;SDS011;38003;52.012;4.346;2022-11-15T13:34:02;4.20;;;1.20;;
51987;SDS011;38003;52.012;4.346;2022-11-15T13:37:02;4.53;;;1.60;;
51987;SDS011;38003;52.012;4.346;2022-11-15T13:39:31;9.50;;;1.50;;
51987;SDS011;38003;52.012;4.346;2022-11-15T13:42:00;4.37;;;1.33;;
51987;SDS011;38003;52.012;4.346;2022-11-15T13:44:28;4.63;;;1.30;;
51987;SDS011;38003;52.012;4.346;2022-11-15T13:47:03;8.37;;;2.33;;
51987;SDS011;38003;52.012;4.346;2022-11-15T13:49:33;5.83;;;1.40;;
51987;SDS011;38003;52.012;4.346;2022-11-15T13:52:02;12.90;;;1.50;;
51987;SDS011;38003;52.012;4.346;2022-11-15T13:54:33;5.40;;;1.33;;
51987;SDS011;38003;52.012;4.346;2022-11-15T13:57:10;3.80;;;1.20;;
51987;SDS011;38003;52.012;4.346;2022-11-15T13:59:44;6.97;;;1.40;;
51987;SDS011;38003;52.012;4.346;2022-11-15T14:02:15;4.60;;;1.40;;
51987;SDS011;38003;52.012;4.346;2022-11-15T14:04:46;4.50;;;1.70;;
51987;SDS011;38003;52.012;4.346;2022-11-15T14:07:18;4.77;;;1.47;;
51987;SDS011;38003;52.012;4.346;2022-11-15T14:09:47;8.37;;;1.97;;
51987;SDS011;38003;52.012;4.346;2022-11-15T14:12:23;5.33;;;1.40;;
51987;SDS011;38003;52.012;4.346;2022-11-15T14:14:53;5.13;;;2.10;;
51987;SDS011;38003;52.012;4.346;2022-11-15T14:17:33;5.03;;;1.90;;
51987;SDS011;38003;52.012;4.346;2022-11-15T14:22:51;3.73;;;1.27;;
51987;SDS011;38003;52.012;4.346;2022-11-15T14:25:20;3.43;;;1.07;;
51987;SDS011;38003;52.012;4.346;2022-11-15T14:28:09;5.73;;;1.30;;
51987;SDS011;38003;52.012;4.346;2022-11-15T14:30:39;4.53;;;1.97;;
51987;SDS011;38003;52.012;4.346;2022-11-15T14:33:18;3.93;;;1.50;;
51987;SDS011;38003;52.012;4.346;2022-11-15T14:35:48;3.70;;;1.43;;
51987;SDS011;38003;52.012;4.346;2022-11-15T14:38:16;7.23;;;1.40;;
51987;SDS011;38003;52.012;4.346;2022-11-15T14:40:44;6.67;;;1.73;;
51987;SDS011;38003;52.012;4.346;2022-11-15T14:43:12;4.53;;;1.30;;
51987;SDS011;38003;52.012;4.346;2022-11-15T14:45:40;5.83;;;1.37;;
51987;SDS011;38003;52.012;4.346;2022-11-15T14:48:08;5.27;;;1.40;;
51987;SDS011;38003;52.012;4.346;2022-11-15T14:50:37;3.60;;;1.20;;
51987;SDS011;38003;52.012;4.346;2022-11-15T14:53:05;4.07;;;1.30;;
51987;SDS011;38003;52.012;4.346;2022-11-15T14:55:34;4.23;;;1.30;;
51987;SDS011;38003;52.012;4.346;2022-11-15T14:58:03;5.03;;;1.03;;
51987;SDS011;38003;52.012;4.346;2022-11-15T15:00:34;6.23;;;1.40;;
51987;SDS011;38003;52.012;4.346;2022-11-15T15:03:02;4.63;;;1.50;;
51987;SDS011;38003;52.012;4.346;2022-11-15T15:05:32;5.00;;;1.57;;
51987;SDS011;38003;52.012;4.346;2022-11-15T15:08:02;4.63;;;1.40;;
51987;SDS011;38003;52.012;4.346;2022-11-15T15:10:31;5.27;;;1.27;;
51987;SDS011;38003;52.012;4.346;2022-11-15T15:13:08;5.37;;;1.50;;
51987;SDS011;38003;52.012;4.346;2022-11-15T15:15:42;4.03;;;1.30;;
51987;SDS011;38003;52.012;4.346;2022-11-15T15:18:10;4.50;;;1.27;;
51987;SDS011;38003;52.012;4.346;2022-11-15T15:20:39;3.83;;;1.20;;
51987;SDS011;38003;52.012;4.346;2022-11-15T15:23:11;3.37;;;1.00;;
51987;SDS011;38003;52.012;4.346;2022-11-15T15:25:42;4.93;;;1.40;;
51987;SDS011;38003;52.012;4.346;2022-11-15T15:28:11;2.30;;;1.20;;
51987;SDS011;38003;52.012;4.346;2022-11-15T15:30:39;4.00;;;1.07;;
51987;SDS011;38003;52.012;4.346;2022-11-15T15:33:07;3.57;;;1.40;;
51987;SDS011;38003;52.012;4.346;2022-11-15T15:35:35;4.40;;;1.20;;
51987;SDS011;38003;52.012;4.346;2022-11-15T15:38:03;4.90;;;1.83;;
51987;SDS011;38003;52.012;4.346;2022-11-15T15:40:32;4.33;;;1.17;;
51987;SDS011;38003;52.012;4.346;2022-11-15T15:43:00;7.77;;;1.53;;
51987;SDS011;38003;52.012;4.346;2022-11-15T15:45:28;5.70;;;1.53;;
51987;SDS011;38003;52.012;4.346;2022-11-15T15:47:56;10.07;;;2.17;;
51987;SDS011;38003;52.012;4.346;2022-11-15T15:50:24;5.47;;;1.57;;
51987;SDS011;38003;52.012;4.346;2022-11-15T15:52:54;6.07;;;1.80;;
51987;SDS011;38003;52.012;4.346;2022-11-15T15:55:24;4.20;;;1.33;;